createdAt,value
2022-10-21T00:00:38.882Z,1004.6
2022-10-21T00:01:40.943Z,1004.6
2022-10-21T00:02:42.939Z,1004.6
2022-10-21T00:03:44.920Z,1004.6
2022-10-21T00:04:47.097Z,1004.5
2022-10-21T00:05:48.878Z,1004.5
2022-10-21T00:06:50.998Z,1004.6
2022-10-21T00:07:52.938Z,1004.6
2022-10-21T00:08:54.978Z,1004.6
2022-10-21T00:09:56.884Z,1004.6
2022-10-21T00:10:58.919Z,1004.6
2022-10-21T00:12:01.019Z,1004.6
2022-10-21T00:13:02.917Z,1004.5
2022-10-21T00:14:04.920Z,1004.5
2022-10-21T00:15:06.977Z,1004.5
2022-10-21T00:16:08.958Z,1004.5
2022-10-21T00:17:10.859Z,1004.5
2022-10-21T00:18:12.917Z,1004.6
2022-10-21T00:19:14.949Z,1004.6
2022-10-21T00:20:16.977Z,1004.5
2022-10-21T00:21:18.958Z,1004.5
2022-10-21T00:22:20.917Z,1004.5
2022-10-21T00:23:22.938Z,1004.6
2022-10-21T00:24:24.900Z,1004
2022-10-21T00:25:26.977Z,1004.4
2022-10-21T00:26:28.946Z,1004.4
2022-10-21T00:27:30.957Z,1004.4
2022-10-21T00:28:32.937Z,1004.4
2022-10-21T00:29:34.963Z,1004.3
2022-10-21T00:30:36.897Z,1004.4
2022-10-21T00:31:38.958Z,1004.4
2022-10-21T00:32:41.135Z,1004.4
2022-10-21T00:33:42.899Z,1004.3
2022-10-21T00:34:44.882Z,1004.3
2022-10-21T00:35:46.909Z,1004.2
2022-10-21T00:36:48.980Z,1004.2
2022-10-21T00:37:50.943Z,1004.3
2022-10-21T00:38:53.058Z,1004.1
2022-10-21T00:39:54.938Z,1004
2022-10-21T00:40:56.997Z,1004.1
2022-10-21T00:41:58.941Z,1004
2022-10-21T00:43:01.018Z,1004
2022-10-21T00:44:02.978Z,1004
2022-10-21T00:45:04.900Z,1004
2022-10-21T00:46:06.937Z,1004
2022-10-21T00:47:08.942Z,1003.9
2022-10-21T00:48:10.958Z,1004
2022-10-21T00:49:13.017Z,1004
2022-10-21T00:50:14.958Z,1003.9
2022-10-21T00:51:16.959Z,1004
2022-10-21T00:52:19.008Z,1004
2022-10-21T00:53:20.922Z,1004
2022-10-21T00:54:22.938Z,1004.1
2022-10-21T00:55:24.977Z,1004
2022-10-21T00:56:26.969Z,1004
2022-10-21T00:57:28.940Z,1004
2022-10-21T00:58:30.938Z,1003.9
2022-10-21T00:59:32.938Z,1003.9
2022-10-21T01:00:34.925Z,1003.9
2022-10-21T01:01:36.969Z,1003.9
2022-10-21T01:02:38.943Z,1003.9
2022-10-21T01:03:40.961Z,1003.9
2022-10-21T01:04:42.938Z,1003.9
2022-10-21T01:05:45.019Z,1003.8
2022-10-21T01:06:47.061Z,1003.8
2022-10-21T01:07:48.958Z,1003.8
2022-10-21T01:08:51.035Z,1003.8
2022-10-21T01:09:53.037Z,1003.8
2022-10-21T01:10:54.885Z,1003.7
2022-10-21T01:11:56.960Z,1003.7
2022-10-21T01:12:58.940Z,1003.7
2022-10-21T01:14:01.062Z,1003.7
2022-10-21T01:16:04.993Z,1003.6
2022-10-21T01:17:15.525Z,1003.6
2022-10-21T01:18:08.984Z,1003.6
2022-10-21T01:19:10.978Z,1003.5
2022-10-21T01:20:12.901Z,1003.5
2022-10-21T01:21:14.978Z,1003.4
2022-10-21T01:22:16.977Z,1003.4
2022-10-21T01:23:18.939Z,1003.3
2022-10-21T01:24:20.958Z,1003.4
2022-10-21T01:25:22.938Z,1003.4
2022-10-21T01:26:24.958Z,1003.5
2022-10-21T01:27:26.958Z,1003.4
2022-10-21T01:28:28.989Z,1003.4
2022-10-21T01:29:31.196Z,1003.4
2022-10-21T01:30:32.959Z,1003.5
2022-10-21T01:31:35.024Z,1003.4
2022-10-21T01:32:36.901Z,1003.5
2022-10-21T01:33:38.960Z,1003.5
2022-10-21T01:34:40.980Z,1003.6
2022-10-21T01:35:42.997Z,1003.6
2022-10-21T01:36:44.997Z,1003.7
2022-10-21T01:37:47.007Z,1003.6
2022-10-21T01:38:48.998Z,1003.6
2022-10-21T01:39:51.077Z,1003.6
2022-10-21T01:40:53.062Z,1003.6
2022-10-21T01:41:54.979Z,1003.6
2022-10-21T01:42:57.017Z,1003.6
2022-10-21T01:43:58.959Z,1003.6
2022-10-21T01:45:01.078Z,1003.5
2022-10-21T01:46:03.057Z,1003.6
2022-10-21T01:47:05.002Z,1003.6
2022-10-21T01:48:06.978Z,1003.6
2022-10-21T01:49:09.018Z,1003.7
2022-10-21T01:50:10.966Z,1003.5
2022-10-21T01:51:13.124Z,1003.7
2022-10-21T01:52:14.979Z,1003.6
2022-10-21T01:53:16.903Z,1003.6
2022-10-21T01:54:19.008Z,1003.5
2022-10-21T01:55:20.919Z,1003.5
2022-10-21T01:56:22.976Z,1003.6
2022-10-21T01:57:25.018Z,1002.9
2022-10-21T01:58:26.978Z,1003.5
2022-10-21T01:59:28.898Z,1003.6
2022-10-21T02:03:49.076Z,1003.7
2022-10-21T02:04:50.960Z,1003.7
2022-10-21T02:05:53.366Z,1003.7
2022-10-21T02:06:55.062Z,1003.7
2022-10-21T02:07:56.949Z,1003.6
2022-10-21T02:08:59.092Z,1003.6
2022-10-21T02:10:01.099Z,1003.7
2022-10-21T02:11:03.002Z,1003.7
2022-10-21T02:12:04.942Z,1003.6
2022-10-21T02:13:05.962Z,1003.6
2022-10-21T02:14:07.921Z,1003.6
2022-10-21T02:15:10.044Z,1003.6
2022-10-21T02:16:12.042Z,1003.2
2022-10-21T02:17:14.001Z,1003.5
2022-10-21T02:18:16.001Z,1003.6
2022-10-21T02:19:18.058Z,1003.6
2022-10-21T02:20:20.320Z,1003.6
2022-10-21T02:21:22.040Z,1003.6
2022-10-21T02:22:23.982Z,1003.6
2022-10-21T02:23:26.040Z,1003.6
2022-10-21T02:24:28.043Z,1003.6
2022-10-21T02:25:30.141Z,1003.6
2022-10-21T02:26:32.010Z,1003.6
2022-10-21T02:27:34.044Z,1003.6
2022-10-21T02:28:36.170Z,1003.7
2022-10-21T02:29:38.041Z,1003.6
2022-10-21T02:30:40.041Z,1003.6
2022-10-21T02:31:42.421Z,1003.6
2022-10-21T02:32:44.100Z,1003.6
2022-10-21T02:33:46.046Z,1003.6
2022-10-21T02:34:47.983Z,1003.5
2022-10-21T02:35:49.983Z,1003.4
2022-10-21T02:36:52.103Z,1003.5
2022-10-21T02:37:54.063Z,1003.5
2022-10-21T02:38:56.041Z,1003.5
2022-10-21T02:39:57.965Z,1003.5
2022-10-21T02:41:00.048Z,1003.4
2022-10-21T02:42:02.019Z,1003.4
2022-10-21T02:43:04.060Z,1003.5
2022-10-21T02:44:05.962Z,1003.4
2022-10-21T02:45:08.023Z,1003.4
2022-10-21T02:46:10.062Z,1003.4
2022-10-21T02:48:14.084Z,1003.3
2022-10-21T02:49:16.020Z,1003.4
2022-10-21T02:50:18.063Z,1003.3
2022-10-21T02:51:20.088Z,1003.3
2022-10-21T02:52:22.101Z,1003.4
2022-10-21T02:53:23.968Z,1003.4
2022-10-21T02:54:26.019Z,1003.1
2022-10-21T02:55:28.059Z,1003.4
2022-10-21T02:57:32.040Z,1003.4
2022-10-21T02:58:34.099Z,1003.4
2022-10-21T02:59:36.001Z,1003.4
2022-10-21T03:00:38.048Z,1003.3
2022-10-21T03:01:40.080Z,1003.3
2022-10-21T03:02:42.541Z,1003.3
2022-10-21T03:03:44.080Z,1003.3
2022-10-21T03:04:45.940Z,1003.4
2022-10-21T03:05:48.108Z,1003.3
2022-10-21T03:06:50.079Z,1003.3
2022-10-21T03:07:52.120Z,1003.3
2022-10-21T03:08:54.147Z,1003.3
2022-10-21T03:09:55.999Z,1003.3
2022-10-21T03:10:58.062Z,1003.3
2022-10-21T03:12:00.026Z,1003.3
2022-10-21T03:13:02.160Z,1003.2
2022-10-21T03:14:04.060Z,1003.2
2022-10-21T03:15:06.076Z,1003.2
2022-10-21T03:16:08.043Z,1003.3
2022-10-21T03:17:10.015Z,1003.2
2022-10-21T03:18:12.066Z,1003.2
2022-10-21T03:19:14.013Z,1003.2
2022-10-21T03:20:16.081Z,1003.2
2022-10-21T03:21:18.114Z,1003.2
2022-10-21T03:22:20.022Z,1003.2
2022-10-21T03:23:22.099Z,1003.2
2022-10-21T03:24:28.674Z,1003.2
2022-10-21T03:25:26.114Z,1003.3
2022-10-21T03:26:28.082Z,1003.1
2022-10-21T03:28:32.062Z,1003
2022-10-21T03:29:34.140Z,1003
2022-10-21T03:30:36.120Z,1003
2022-10-21T03:31:38.021Z,1003
2022-10-21T03:32:40.406Z,1003
2022-10-21T03:33:42.559Z,1002.9
2022-10-21T03:34:44.059Z,1003
2022-10-21T03:35:46.020Z,1003
2022-10-21T03:36:48.087Z,1003
2022-10-21T03:37:50.131Z,1003
2022-10-21T03:38:52.119Z,1003
2022-10-21T03:39:54.099Z,1002.9
2022-10-21T03:40:56.140Z,1003
2022-10-21T03:41:58.100Z,1003
2022-10-21T03:43:00.062Z,1003
2022-10-21T03:44:02.022Z,1002.9
2022-10-21T03:45:04.019Z,1003
2022-10-21T03:46:06.039Z,1003
2022-10-21T03:47:08.039Z,1002.9
2022-10-21T03:48:10.139Z,1002.9
2022-10-21T03:49:16.993Z,1002.9
2022-10-21T03:50:15.182Z,1002.9
2022-10-21T03:51:16.000Z,1002.9
2022-10-21T03:52:18.027Z,1001.5
2022-10-21T03:53:38.028Z,1002.5
2022-10-21T03:54:22.082Z,1002.8
2022-10-21T03:55:24.181Z,1002.9
2022-10-21T03:56:26.063Z,1002.9
2022-10-21T03:57:28.060Z,1002.9
2022-10-21T03:58:30.080Z,1002.8
2022-10-21T03:59:32.161Z,1002.8
2022-10-21T04:00:34.166Z,1002.9
2022-10-21T04:01:36.169Z,1002.8
2022-10-21T04:02:38.290Z,1002.8
2022-10-21T04:03:39.981Z,1002.8
2022-10-21T04:04:42.100Z,1002.8
2022-10-21T04:05:44.081Z,1002.8
2022-10-21T04:06:46.139Z,1002.8
2022-10-21T04:07:49.325Z,1002.7
2022-10-21T04:08:50.092Z,1002.7
2022-10-21T04:09:52.079Z,1002.7
2022-10-21T04:11:56.121Z,1002.7
2022-10-21T04:12:58.042Z,1002.7
2022-10-21T04:14:00.040Z,1002.7
2022-10-21T04:15:02.079Z,1002.7
2022-10-21T04:16:04.101Z,1002.8
2022-10-21T04:17:07.929Z,1002.8
2022-10-21T04:18:08.041Z,1002.8
2022-10-21T04:19:10.000Z,1002.7
2022-10-21T04:20:12.059Z,1002.7
2022-10-21T04:21:14.203Z,1002.6
2022-10-21T04:22:16.043Z,1002.6
2022-10-21T04:23:18.145Z,1002.6
2022-10-21T04:24:20.046Z,1002.5
2022-10-21T04:25:22.079Z,1002.6
2022-10-21T04:26:24.140Z,1002.6
2022-10-21T04:27:26.100Z,1002.5
2022-10-21T04:28:28.113Z,1002.5
2022-10-21T04:29:30.243Z,1002.5
2022-10-21T04:30:32.082Z,1002.5
2022-10-21T04:31:34.119Z,1002.4
2022-10-21T04:32:36.385Z,1002.4
2022-10-21T04:33:38.042Z,1002.4
2022-10-21T04:34:40.121Z,1002.4
2022-10-21T04:35:42.034Z,1002.4
2022-10-21T04:36:44.054Z,1002.3
2022-10-21T04:37:46.032Z,1002.3
2022-10-21T04:38:48.115Z,1002.3
2022-10-21T04:39:50.121Z,1002.3
2022-10-21T04:40:52.037Z,1002.2
2022-10-21T04:41:54.300Z,1002.1
2022-10-21T04:42:56.095Z,1002.2
2022-10-21T04:43:58.074Z,1002.2
2022-10-21T04:45:00.168Z,1002.2
2022-10-21T04:46:02.070Z,1002.2
2022-10-21T04:47:04.081Z,1002.2
2022-10-21T04:48:06.095Z,1002.1
2022-10-21T04:49:08.100Z,1002.1
2022-10-21T04:50:10.083Z,1002.1
2022-10-21T04:51:12.088Z,1002.1
2022-10-21T04:52:14.207Z,1002
2022-10-21T04:53:16.039Z,1002
2022-10-21T04:54:18.072Z,1002
2022-10-21T04:55:19.993Z,1002
2022-10-21T04:56:22.048Z,1001.9
2022-10-21T04:57:24.140Z,1001.8
2022-10-21T04:58:26.103Z,1001.8
2022-10-21T04:59:28.062Z,1001.8
2022-10-21T05:00:30.102Z,1001.7
2022-10-21T05:01:32.205Z,1001.8
2022-10-21T05:02:34.160Z,1001.8
2022-10-21T05:03:36.141Z,1001.7
2022-10-21T05:04:38.119Z,1001.2
2022-10-21T05:05:40.140Z,1001.6
2022-10-21T05:06:42.080Z,1001.7
2022-10-21T05:07:44.082Z,1001.7
2022-10-21T05:08:46.456Z,1001.7
2022-10-21T05:09:48.064Z,1001.7
2022-10-21T05:10:50.023Z,1001.7
2022-10-21T05:11:51.998Z,1001.7
2022-10-21T05:12:54.344Z,1001.6
2022-10-21T05:13:56.160Z,1001.6
2022-10-21T05:14:58.079Z,1001.6
2022-10-21T05:16:00.078Z,1001.5
2022-10-21T05:17:02.119Z,1001.5
2022-10-21T05:18:04.101Z,1001.5
2022-10-21T05:19:06.112Z,1001.4
2022-10-21T05:20:08.180Z,1001.4
2022-10-21T05:21:10.140Z,1001.4
2022-10-21T05:22:12.082Z,1001.4
2022-10-21T05:23:14.268Z,1001.4
2022-10-21T05:24:16.163Z,1001.4
2022-10-21T05:25:18.131Z,1001.3
2022-10-21T05:26:20.060Z,1001.3
2022-10-21T05:27:22.029Z,1001.2
2022-10-21T05:28:24.055Z,1001.3
2022-10-21T05:29:26.063Z,1001.3
2022-10-21T05:30:28.163Z,1001.3
2022-10-21T05:31:30.181Z,1001.2
2022-10-21T05:32:32.080Z,1001.2
2022-10-21T05:33:34.140Z,1001.2
2022-10-21T05:34:36.135Z,1001.1
2022-10-21T05:35:38.041Z,1001.2
2022-10-21T05:36:40.101Z,1001.2
2022-10-21T05:37:42.120Z,1001.2
2022-10-21T05:38:44.061Z,1001.2
2022-10-21T05:39:46.081Z,1001.1
2022-10-21T05:40:48.208Z,1001.1
2022-10-21T05:41:50.120Z,1001.1
2022-10-21T05:42:51.999Z,1001.1
2022-10-21T05:43:54.360Z,1001.1
2022-10-21T05:44:56.041Z,1001
2022-10-21T05:45:58.164Z,1001
2022-10-21T05:47:00.095Z,1001
2022-10-21T05:48:02.140Z,1001
2022-10-21T05:49:04.077Z,1001
2022-10-21T05:50:06.100Z,1001
2022-10-21T05:51:08.459Z,1001
2022-10-21T05:52:10.192Z,1000.9
2022-10-21T05:53:12.101Z,1001
2022-10-21T05:54:14.180Z,1000.9
2022-10-21T05:55:16.161Z,1000.8
2022-10-21T05:56:18.269Z,1000.8
2022-10-21T05:57:20.169Z,1000.3
2022-10-21T05:58:22.179Z,1000.7
2022-10-21T05:59:24.324Z,1000.8
2022-10-21T06:00:26.161Z,1000.8
2022-10-21T06:01:28.383Z,1000.8
2022-10-21T06:02:30.089Z,1000.8
2022-10-21T06:03:32.020Z,1000.8
2022-10-21T06:04:36.377Z,1000.8
2022-10-21T06:05:36.120Z,1000.7
2022-10-21T06:06:38.220Z,1000.8
2022-10-21T06:07:40.386Z,1000.8
2022-10-21T06:08:42.251Z,1000.7
2022-10-21T06:09:44.120Z,1000.7
2022-10-21T06:10:46.100Z,1000.7
2022-10-21T06:11:48.192Z,1000.7
2022-10-21T06:12:50.141Z,1000.7
2022-10-21T06:13:52.124Z,1000.7
2022-10-21T06:14:54.367Z,1000.7
2022-10-21T06:15:56.279Z,1000.7
2022-10-21T06:16:58.039Z,1000.7
2022-10-21T06:18:00.024Z,1000.7
2022-10-21T06:19:02.116Z,1000.7
2022-10-21T06:20:04.123Z,1000.7
2022-10-21T06:21:06.244Z,1000.8
2022-10-21T06:22:08.160Z,1000.8
2022-10-21T06:23:11.532Z,1000.8
2022-10-21T06:24:14.559Z,1000.8
2022-10-21T06:26:19.103Z,1000.7
2022-10-21T06:27:21.155Z,1000.8
2022-10-21T06:28:23.034Z,1000.8
2022-10-21T06:29:25.186Z,1000.8
2022-10-21T06:30:27.285Z,1000.8
2022-10-21T06:31:29.107Z,1000.9
2022-10-21T06:32:31.117Z,1000.8
2022-10-21T06:33:33.137Z,1000.9
2022-10-21T06:34:35.049Z,1000.8
2022-10-21T06:35:37.122Z,1000.8
2022-10-21T06:36:39.117Z,1000.8
2022-10-21T06:37:41.361Z,1000.9
2022-10-21T06:38:43.157Z,1000.8
2022-10-21T06:39:45.039Z,1000.9
2022-10-21T06:40:47.079Z,1000.9
2022-10-21T06:41:49.104Z,1000.9
2022-10-21T06:42:51.126Z,1000.9
2022-10-21T06:43:53.117Z,1000.9
2022-10-21T06:44:56.612Z,1000.9
2022-10-21T06:45:57.040Z,1000.9
2022-10-21T06:46:59.798Z,1000.9
2022-10-21T06:48:01.144Z,1000.8
2022-10-21T06:49:03.182Z,1000.8
2022-10-21T06:50:05.163Z,1000.8
2022-10-21T06:51:07.119Z,1000.9
2022-10-21T06:52:09.188Z,1000.9
2022-10-21T06:53:11.117Z,1000.8
2022-10-21T06:54:13.137Z,1000.8
2022-10-21T06:55:15.197Z,1000.7
2022-10-21T06:56:17.117Z,1000.7
2022-10-21T06:57:19.177Z,1000.6
2022-10-21T06:58:21.345Z,1000.6
2022-10-21T06:59:23.103Z,1000.6
2022-10-21T07:00:25.159Z,1000.6
2022-10-21T07:01:34.215Z,1000.6
2022-10-21T07:02:29.130Z,1000.6
2022-10-21T07:03:31.141Z,1000.6
2022-10-21T07:04:33.044Z,1000.6
2022-10-21T07:05:34.139Z,1000.6
2022-10-21T07:06:36.128Z,1000.6
2022-10-21T07:07:38.463Z,1000.6
2022-10-21T07:08:47.070Z,1000.6
2022-10-21T07:09:42.233Z,1000.7
2022-10-21T07:10:44.174Z,1000.7
2022-10-21T07:11:46.138Z,1000.6
2022-10-21T07:12:48.137Z,1000.6
2022-10-21T07:13:50.162Z,1000.7
2022-10-21T07:14:52.163Z,1000.7
2022-10-21T07:16:56.157Z,1000.7
2022-10-21T07:17:58.141Z,1000.7
2022-10-21T07:19:00.157Z,1000.8
2022-10-21T07:20:02.178Z,1000.7
2022-10-21T07:21:04.078Z,1000.7
2022-10-21T07:22:06.158Z,1000.8
2022-10-21T07:23:08.118Z,1000.8
2022-10-21T07:24:10.177Z,1000.7
2022-10-21T07:25:12.119Z,1000.7
2022-10-21T07:26:14.183Z,1000.6
2022-10-21T07:27:16.137Z,1000.6
2022-10-21T07:28:18.099Z,1000.7
2022-10-21T07:29:20.122Z,1000.7
2022-10-21T07:30:22.077Z,1000.6
2022-10-21T07:31:24.124Z,1000.7
2022-10-21T07:32:26.157Z,1000.7
2022-10-21T07:33:28.236Z,1000.7
2022-10-21T07:34:30.123Z,1000.6
2022-10-21T07:35:32.184Z,1000.6
2022-10-21T07:36:34.107Z,1000.6
2022-10-21T07:37:36.490Z,1000.6
2022-10-21T07:38:38.138Z,1000.6
2022-10-21T07:39:40.112Z,1000.7
2022-10-21T07:40:42.078Z,1000.7
2022-10-21T07:41:44.140Z,1000.7
2022-10-21T07:42:46.149Z,1000.7
2022-10-21T07:43:48.140Z,1000.7
2022-10-21T07:44:50.185Z,1000.7
2022-10-21T07:45:52.157Z,1000.7
2022-10-21T07:46:54.556Z,1000.7
2022-10-21T07:47:56.159Z,1000.8
2022-10-21T07:48:58.177Z,1000.7
2022-10-21T07:50:00.197Z,1000.9
2022-10-21T07:51:02.199Z,1000.8
2022-10-21T07:52:04.223Z,1000.8
2022-10-21T07:53:12.276Z,1000.8
2022-10-21T07:54:08.179Z,1000.8
2022-10-21T07:55:10.178Z,1000.8
2022-10-21T07:56:12.138Z,1000.8
2022-10-21T07:57:14.119Z,1000.7
2022-10-21T07:58:16.123Z,1000.7
2022-10-21T07:59:18.126Z,1000.7
2022-10-21T08:00:20.282Z,1000.7
2022-10-21T08:01:22.199Z,1000.7
2022-10-21T08:02:24.138Z,1000.7
2022-10-21T08:03:26.183Z,1000.7
2022-10-21T08:04:28.208Z,1000.7
2022-10-21T08:05:30.098Z,1000.8
2022-10-21T08:06:32.120Z,1000.7
2022-10-21T08:07:34.163Z,1000.7
2022-10-21T08:08:36.219Z,1000.6
2022-10-21T08:09:38.199Z,1000.6
2022-10-21T08:10:42.456Z,1000.5
2022-10-21T08:11:44.235Z,1000.5
2022-10-21T08:12:46.098Z,1000.6
2022-10-21T08:13:48.155Z,1000.5
2022-10-21T08:14:50.259Z,1000.5
2022-10-21T08:15:52.176Z,1000.5
2022-10-21T08:16:54.677Z,1000.5
2022-10-21T08:17:56.178Z,1000.5
2022-10-21T08:18:58.158Z,1000.6
2022-10-21T08:20:00.257Z,1000.7
2022-10-21T08:21:02.236Z,1000.7
2022-10-21T08:22:04.217Z,1000.7
2022-10-21T08:23:06.131Z,1000.6
2022-10-21T08:24:08.238Z,1000.6
2022-10-21T08:25:10.238Z,1000.6
2022-10-21T08:26:12.138Z,1000.5
2022-10-21T08:27:14.277Z,1000.5
2022-10-21T08:28:16.205Z,1000.5
2022-10-21T08:29:18.140Z,1000.5
2022-10-21T08:30:20.345Z,1000.5
2022-10-21T08:31:22.197Z,1000.5
2022-10-21T08:32:24.178Z,1000.5
2022-10-21T08:33:26.197Z,1000.5
2022-10-21T08:34:28.137Z,1000.5
2022-10-21T08:35:30.157Z,1000.4
2022-10-21T08:36:32.138Z,1000.4
2022-10-21T08:37:34.218Z,1000.4
2022-10-21T08:38:36.239Z,1000.3
2022-10-21T08:39:38.124Z,1000.3
2022-10-21T08:40:40.096Z,1000.3
2022-10-21T08:41:42.157Z,1000.4
2022-10-21T08:42:44.104Z,1000.4
2022-10-21T08:43:46.197Z,1000.4
2022-10-21T08:44:48.164Z,1000.3
2022-10-21T08:45:50.278Z,999.9
2022-10-21T08:46:52.267Z,1000.2
2022-10-21T08:47:54.718Z,1000.3
2022-10-21T08:48:56.197Z,1000.2
2022-10-21T08:49:58.139Z,1000.2
2022-10-21T08:51:00.137Z,1000.2
2022-10-21T08:52:02.218Z,1000.2
2022-10-21T08:53:04.238Z,1000.2
2022-10-21T08:54:06.195Z,1000.2
2022-10-21T08:55:08.167Z,1000.2
2022-10-21T08:56:10.217Z,1000.2
2022-10-21T08:57:12.258Z,1000.2
2022-10-21T08:58:15.402Z,1000.2
2022-10-21T08:59:16.240Z,1000.2
2022-10-21T09:00:18.251Z,1000.2
2022-10-21T09:01:20.257Z,1000.1
2022-10-21T09:02:22.265Z,1000.2
2022-10-21T09:03:24.275Z,1000.1
2022-10-21T09:04:26.246Z,1000.2
2022-10-21T09:05:28.203Z,1000.1
2022-10-21T09:06:30.234Z,1000.2
2022-10-21T09:07:32.197Z,1000.1
2022-10-21T09:08:34.370Z,1000.2
2022-10-21T09:09:36.177Z,1000.2
2022-10-21T09:10:38.233Z,1000.1
2022-10-21T09:11:40.218Z,1000.1
2022-10-21T09:12:42.217Z,1000.1
2022-10-21T09:13:44.238Z,1000.1
2022-10-21T09:14:46.161Z,1000.1
2022-10-21T09:15:48.237Z,1000.1
2022-10-21T09:16:50.226Z,1000
2022-10-21T09:17:52.201Z,1000
2022-10-21T09:18:54.739Z,1000.2
2022-10-21T09:19:56.237Z,1000
2022-10-21T09:21:00.499Z,1000.1
2022-10-21T09:22:10.732Z,1000
2022-10-21T09:23:02.344Z,1000
2022-10-21T09:24:04.158Z,1000
2022-10-21T09:25:06.318Z,999.9
2022-10-21T09:26:08.192Z,999.9
2022-10-21T09:27:10.197Z,999.9
2022-10-21T09:28:12.179Z,999.8
2022-10-21T09:29:14.258Z,999.8
2022-10-21T09:30:16.341Z,999.8
2022-10-21T09:31:18.225Z,999.8
2022-10-21T09:32:20.336Z,999.8
2022-10-21T09:33:22.366Z,999.8
2022-10-21T09:34:24.237Z,999.7
2022-10-21T09:35:26.256Z,999.7
2022-10-21T09:36:28.218Z,999.7
2022-10-21T09:37:31.615Z,999.7
2022-10-21T09:38:32.206Z,999.7
2022-10-21T09:39:34.263Z,999.7
2022-10-21T09:40:36.417Z,999.7
2022-10-21T09:41:38.384Z,999.7
2022-10-21T09:42:47.173Z,999.7
2022-10-21T09:43:42.221Z,999.7
2022-10-21T09:44:44.258Z,999.6
2022-10-21T09:45:46.237Z,999.7
2022-10-21T09:46:48.206Z,999.7
2022-10-21T09:47:50.185Z,999
2022-10-21T09:49:36.620Z,999.4
2022-10-21T09:50:06.739Z,999.5
2022-10-21T09:50:56.232Z,999.5
2022-10-21T09:51:58.217Z,999.6
2022-10-21T09:53:00.265Z,999.6
2022-10-21T09:54:02.276Z,999.6
2022-10-21T09:55:04.272Z,999.6
2022-10-21T09:56:06.238Z,999.7
2022-10-21T09:57:08.342Z,999.7
2022-10-21T09:58:10.297Z,999.7
2022-10-21T09:59:12.197Z,999.6
2022-10-21T10:00:14.455Z,999.6
2022-10-21T10:01:16.321Z,999.6
2022-10-21T10:02:18.327Z,999.7
2022-10-21T10:03:20.176Z,999.7
2022-10-21T10:04:22.183Z,999.6
2022-10-21T10:05:24.197Z,999.6
2022-10-21T10:06:26.299Z,999.6
2022-10-21T10:07:28.243Z,999.6
2022-10-21T10:08:30.216Z,999.6
2022-10-21T10:09:32.182Z,999.5
2022-10-21T10:10:34.220Z,999.5
2022-10-21T10:11:36.337Z,999.5
2022-10-21T10:12:38.547Z,999.5
2022-10-21T10:13:40.223Z,999.6
2022-10-21T10:14:42.277Z,999.5
2022-10-21T10:15:44.278Z,999.5
2022-10-21T10:16:46.257Z,999.5
2022-10-21T10:17:48.199Z,999.4
2022-10-21T10:18:50.180Z,999.4
2022-10-21T10:19:52.262Z,999.4
2022-10-21T10:20:54.737Z,999.3
2022-10-21T10:21:56.237Z,999.3
2022-10-21T10:22:58.197Z,999.2
2022-10-21T10:24:00.216Z,999.2
2022-10-21T10:25:02.297Z,999.2
2022-10-21T10:26:04.415Z,999.3
2022-10-21T10:27:06.256Z,999.4
2022-10-21T10:28:08.296Z,999.4
2022-10-21T10:29:10.212Z,999.4
2022-10-21T10:30:12.277Z,999.4
2022-10-21T10:31:14.266Z,999.4
2022-10-21T10:32:16.256Z,999.3
2022-10-21T10:33:18.216Z,999.3
2022-10-21T10:34:20.236Z,999.3
2022-10-21T10:35:22.377Z,999.2
2022-10-21T10:36:24.258Z,999.2
2022-10-21T10:37:26.258Z,999.2
2022-10-21T10:38:28.318Z,999.2
2022-10-21T10:39:30.277Z,999.2
2022-10-21T10:40:32.271Z,999.3
2022-10-21T10:41:34.297Z,999.3
2022-10-21T10:42:36.483Z,999.3
2022-10-21T10:43:38.298Z,999.3
2022-10-21T10:44:40.278Z,999.3
2022-10-21T10:45:42.297Z,999.3
2022-10-21T10:46:44.345Z,999.2
2022-10-21T10:47:46.217Z,999.2
2022-10-21T10:48:48.246Z,999.2
2022-10-21T10:49:50.317Z,999.1
2022-10-21T10:50:52.399Z,999.1
2022-10-21T10:51:54.261Z,999.1
2022-10-21T10:52:56.336Z,999.1
2022-10-21T10:53:58.258Z,999.1
2022-10-21T10:55:00.358Z,999.1
2022-10-21T10:56:02.297Z,999.1
2022-10-21T10:57:04.297Z,999
2022-10-21T10:58:11.618Z,999
2022-10-21T10:59:08.277Z,999
2022-10-21T11:00:10.318Z,999
2022-10-21T11:01:12.354Z,999
2022-10-21T11:02:14.296Z,999
2022-10-21T11:03:16.263Z,999
2022-10-21T11:04:18.259Z,998.9
2022-10-21T11:05:20.345Z,998.9
2022-10-21T11:06:22.377Z,998.9
2022-10-21T11:07:24.238Z,998.8
2022-10-21T11:08:27.257Z,998.8
2022-10-21T11:09:28.363Z,998.7
2022-10-21T11:10:30.377Z,998.7
2022-10-21T11:11:32.365Z,998.7
2022-10-21T11:12:34.278Z,998.7
2022-10-21T11:13:40.042Z,998.7
2022-10-21T11:14:38.279Z,998.8
2022-10-21T11:15:40.238Z,998.7
2022-10-21T11:16:57.201Z,998.8
2022-10-21T11:17:44.219Z,998.8
2022-10-21T11:18:49.398Z,998.8
2022-10-21T11:19:48.308Z,998.5
2022-10-21T11:20:50.324Z,998.7
2022-10-21T11:21:52.399Z,998.8
2022-10-21T11:22:54.372Z,998.8
2022-10-21T11:23:57.617Z,998.8
2022-10-21T11:24:58.264Z,998.8
2022-10-21T11:26:00.197Z,998.8
2022-10-21T11:27:02.337Z,998.8
2022-10-21T11:28:04.322Z,998.8
2022-10-21T11:29:06.277Z,998.8
2022-10-21T11:30:08.357Z,998.8
2022-10-21T11:31:10.277Z,998.8
2022-10-21T11:32:12.599Z,998.8
2022-10-21T11:33:14.437Z,998.8
2022-10-21T11:34:16.297Z,998.8
2022-10-21T11:35:18.260Z,998.8
2022-10-21T11:36:20.328Z,998.7
2022-10-21T11:37:22.493Z,998.7
2022-10-21T11:38:24.277Z,998.8
2022-10-21T11:39:26.277Z,998.8
2022-10-21T11:40:28.281Z,998.8
2022-10-21T11:41:30.248Z,998.7
2022-10-21T11:42:32.299Z,998.7
2022-10-21T11:43:34.300Z,998.7
2022-10-21T11:44:36.285Z,998.6
2022-10-21T11:45:38.284Z,998.6
2022-10-21T11:46:40.296Z,998.6
2022-10-21T11:47:42.318Z,998.6
2022-10-21T11:48:44.297Z,998.6
2022-10-21T11:49:46.296Z,998.6
2022-10-21T11:50:48.297Z,998.6
2022-10-21T11:51:50.277Z,998.5
2022-10-21T11:52:52.364Z,998.5
2022-10-21T11:53:54.319Z,998.5
2022-10-21T11:55:08.538Z,998.5
2022-10-21T11:55:58.303Z,998.5
2022-10-21T11:57:00.299Z,998.6
2022-10-21T11:58:02.388Z,998.6
2022-10-21T11:59:04.276Z,998.6
2022-10-21T12:00:06.363Z,998.6
2022-10-21T12:01:08.305Z,998.6
2022-10-21T12:02:10.363Z,998.6
2022-10-21T12:03:12.273Z,998.6
2022-10-21T12:04:14.417Z,998.5
2022-10-21T12:05:16.284Z,998.6
2022-10-21T12:06:18.293Z,998.6
2022-10-21T12:07:20.345Z,998.6
2022-10-21T12:08:22.433Z,998.8
2022-10-21T12:09:24.245Z,998.9
2022-10-21T12:10:26.281Z,998.9
2022-10-21T12:11:28.251Z,998.9
2022-10-21T12:12:30.261Z,999
2022-10-21T12:13:32.262Z,998.9
2022-10-21T12:14:34.265Z,999
2022-10-21T12:15:36.279Z,998.9
2022-10-21T12:16:38.309Z,998.9
2022-10-21T12:17:40.324Z,998.9
2022-10-21T12:18:42.262Z,998.9
2022-10-21T12:19:44.297Z,998.9
2022-10-21T12:20:46.218Z,998.9
2022-10-21T12:21:48.292Z,998.9
2022-10-21T12:22:50.357Z,998.9
2022-10-21T12:23:52.419Z,998.9
2022-10-21T12:24:54.269Z,998.8
2022-10-21T12:25:56.316Z,998.7
2022-10-21T12:26:58.279Z,998.7
2022-10-21T12:28:00.298Z,998.7
2022-10-21T12:29:04.597Z,998.7
2022-10-21T12:30:04.528Z,998.7
2022-10-21T12:31:06.243Z,998.7
2022-10-21T12:32:08.316Z,998.6
2022-10-21T12:33:10.266Z,998.6
2022-10-21T12:34:12.247Z,998.7
2022-10-21T12:35:14.257Z,998.6
2022-10-21T12:36:16.269Z,998.7
2022-10-21T12:37:18.357Z,998.7
2022-10-21T12:38:20.325Z,998.8
2022-10-21T12:39:22.380Z,998.8
2022-10-21T12:40:24.320Z,998.8
2022-10-21T12:41:26.337Z,998.8
2022-10-21T12:42:28.316Z,998.8
2022-10-21T12:43:30.278Z,998.8
2022-10-21T12:44:32.344Z,998.8
2022-10-21T12:45:34.355Z,998.8
2022-10-21T12:46:37.615Z,998.8
2022-10-21T12:47:38.511Z,998.8
2022-10-21T12:48:40.357Z,998.7
2022-10-21T12:49:42.268Z,998.7
2022-10-21T12:50:44.349Z,998.6
2022-10-21T12:51:46.286Z,998.5
2022-10-21T12:52:48.340Z,998.4
2022-10-21T12:54:52.431Z,998.3
2022-10-21T12:55:54.299Z,998.3
2022-10-21T12:56:56.307Z,998.4
2022-10-21T12:57:58.338Z,998.4
2022-10-21T12:59:00.297Z,998.4
2022-10-21T13:00:02.436Z,998.5
2022-10-21T13:01:04.364Z,998.5
2022-10-21T13:02:06.346Z,998.5
2022-10-21T13:03:08.315Z,998.5
2022-10-21T13:04:10.325Z,998.5
2022-10-21T13:05:12.255Z,998.5
2022-10-21T13:06:14.398Z,998.5
2022-10-21T13:07:16.297Z,998.6
2022-10-21T13:08:18.325Z,998.6
2022-10-21T13:09:20.352Z,998.6
2022-10-21T13:10:22.338Z,998.6
2022-10-21T13:11:24.345Z,998.6
2022-10-21T13:12:26.317Z,998.6
2022-10-21T13:13:28.316Z,998.7
2022-10-21T13:14:33.569Z,998.7
2022-10-21T13:15:32.337Z,998.7
2022-10-21T13:16:34.381Z,998.7